Time;durP1;ratioP1;P1;durP2;ratioP2;P2;SDS_P1;SDS_P2;PMS_P1;PMS_P2;Temp;Humidity;BMP_temperature;BMP_pressure;BME280_temperature;BME280_humidity;BME280_pressure;Samples;Min_cycle;Max_cycle;Signal;HPM_P1;HPM_P2
2022/10/10 00:00:47;;;;;;;1.33;1.33;;;19.90;68.10;;;;;;5101012;27;43394;-72
2022/10/10 00:03:15;;;;;;;1.40;1.40;;;19.90;68.20;;;;;;5101103;27;43433;-72
2022/10/10 00:05:43;;;;;;;1.50;1.50;;;19.90;68.80;;;;;;5101220;27;43493;-72
2022/10/10 00:08:11;;;;;;;1.40;1.40;;;20.00;68.70;;;;;;5100524;27;43586;-72
2022/10/10 00:10:40;;;;;;;1.20;1.20;;;20.20;68.30;;;;;;5097581;27;43454;-72
2022/10/10 00:13:08;;;;;;;1.40;1.40;;;20.30;67.50;;;;;;5102110;27;43455;-72
2022/10/10 00:15:36;;;;;;;1.30;1.30;;;20.60;66.90;;;;;;5103951;27;43533;-72
2022/10/10 00:18:04;;;;;;;1.47;1.47;;;20.80;66.10;;;;;;5101422;27;43598;-73
2022/10/10 00:20:32;;;;;;;1.50;1.50;;;21.00;65.30;;;;;;5100145;28;43409;-72
2022/10/10 00:23:00;;;;;;;1.53;1.53;;;21.20;64.90;;;;;;5102447;27;43361;-72
2022/10/10 00:25:28;;;;;;;1.53;1.53;;;21.30;64.40;;;;;;5103585;27;43952;-71
2022/10/10 00:28:00;;;;;;;1.50;1.50;;;21.40;64.10;;;;;;5102640;27;43831;-71
2022/10/10 00:30:28;;;;;;;1.50;1.50;;;21.40;63.80;;;;;;5102874;27;43425;-72
2022/10/10 00:32:58;;;;;;;1.50;1.50;;;21.40;63.80;;;;;;5103114;27;43382;-72
2022/10/10 00:35:26;;;;;;;1.60;1.60;;;21.30;64.00;;;;;;5102407;27;43474;-73
2022/10/10 00:37:53;;;;;;;1.40;1.40;;;21.20;64.30;;;;;;5102980;27;43606;-72
2022/10/10 00:40:21;;;;;;;1.50;1.50;;;21.00;64.80;;;;;;5102713;27;43564;-72
2022/10/10 00:42:49;;;;;;;1.30;1.30;;;20.90;65.30;;;;;;5104942;27;43402;-73
2022/10/10 00:45:37;;;;;;;1.40;1.40;;;20.90;65.50;;;;;;5101247;28;43450;-73
2022/10/10 00:48:06;;;;;;;1.33;1.33;;;20.70;65.60;;;;;;5094978;28;43906;-72
2022/10/10 00:50:37;;;;;;;1.30;1.30;;;20.60;65.90;;;;;;5101683;27;43441;-74
2022/10/10 00:53:05;;;;;;;1.53;1.53;;;20.50;66.50;;;;;;5103279;27;43443;-72
2022/10/10 00:55:33;;;;;;;1.60;1.60;;;20.50;67.00;;;;;;5104759;27;43465;-72
2022/10/10 00:58:01;;;;;;;1.40;1.40;;;20.50;66.70;;;;;;5103552;28;43872;-73
2022/10/10 01:00:29;;;;;;;1.40;1.40;;;20.60;66.30;;;;;;5103712;27;44142;-72
2022/10/10 01:02:58;;;;;;;1.50;1.50;;;20.70;65.90;;;;;;5103348;28;43425;-72
2022/10/10 01:05:26;;;;;;;1.53;1.53;;;20.80;65.70;;;;;;5104535;27;43411;-72
2022/10/10 01:07:54;;;;;;;1.50;1.50;;;20.80;65.70;;;;;;5103220;27;43605;-73
2022/10/10 01:10:23;;;;;;;1.33;1.33;;;20.70;65.70;;;;;;5101109;28;45966;-73
2022/10/10 01:13:00;;;;;;;1.40;1.40;;;20.60;65.90;;;;;;5101550;27;43360;-73
2022/10/10 01:15:32;;;;;;;1.43;1.43;;;20.50;66.30;;;;;;5100677;27;43408;-72
2022/10/10 01:18:03;;;;;;;1.40;1.40;;;20.40;66.90;;;;;;5100118;28;46008;-72
2022/10/10 01:20:44;;;;;;;1.40;1.40;;;20.40;67.00;;;;;;5102753;27;43518;-72
2022/10/10 01:23:25;;;;;;;1.40;1.40;;;20.30;66.90;;;;;;5101164;27;43390;-73
2022/10/10 01:26:00;;;;;;;1.40;1.40;;;20.30;67.10;;;;;;5098586;28;43419;-72
2022/10/10 01:28:36;;;;;;;1.50;1.50;;;20.20;67.50;;;;;;5097080;28;45898;-72
2022/10/10 01:31:05;;;;;;;1.50;1.50;;;20.20;67.90;;;;;;5104294;27;44015;-72
2022/10/10 01:33:35;;;;;;;1.20;1.20;;;20.20;67.60;;;;;;5102620;27;43406;-73
2022/10/10 01:36:04;;;;;;;1.40;1.40;;;20.30;67.20;;;;;;5099764;28;43473;-72
2022/10/10 01:38:35;;;;;;;1.50;1.50;;;20.40;67.10;;;;;;5100840;28;45247;-73
2022/10/10 01:41:06;;;;;;;1.57;1.57;;;20.40;66.90;;;;;;5100390;27;43422;-71
2022/10/10 01:43:35;;;;;;;1.40;1.40;;;20.30;67.50;;;;;;5099163;27;43440;-73
2022/10/10 01:46:09;;;;;;;1.50;1.50;;;20.30;67.40;;;;;;5102579;27;43382;-73
2022/10/10 01:48:37;;;;;;;1.50;1.50;;;20.30;67.30;;;;;;5102452;27;43594;-72
2022/10/10 01:51:24;;;;;;;1.40;1.40;;;20.30;67.20;;;;;;5101925;27;43414;-72
2022/10/10 01:53:56;;;;;;;1.47;1.47;;;20.20;67.30;;;;;;5102340;28;43779;-72
2022/10/10 01:56:28;;;;;;;1.30;1.30;;;20.20;68.10;;;;;;5103216;27;43378;-72
2022/10/10 01:59:09;;;;;;;1.40;1.40;;;20.20;68.00;;;;;;5101833;27;43895;-73
2022/10/10 02:01:45;;;;;;;1.37;1.37;;;20.10;67.70;;;;;;5101404;27;43366;-73
2022/10/10 02:04:15;;;;;;;1.30;1.30;;;20.10;67.60;;;;;;5101902;27;43352;-73
2022/10/10 02:06:46;;;;;;;1.53;1.53;;;20.10;67.70;;;;;;5100650;28;43445;-71
2022/10/10 02:09:16;;;;;;;1.30;1.30;;;20.00;68.30;;;;;;5102020;27;43856;-72
2022/10/10 02:11:45;;;;;;;1.30;1.30;;;20.00;68.50;;;;;;5101687;28;43820;-74
2022/10/10 02:14:17;;;;;;;1.33;1.33;;;20.00;68.30;;;;;;5102077;27;43493;-72
2022/10/10 02:16:46;;;;;;;1.47;1.47;;;20.00;68.00;;;;;;5097335;28;43466;-72
2022/10/10 02:19:17;;;;;;;1.30;1.30;;;20.00;68.00;;;;;;5102523;28;43890;-73
2022/10/10 02:21:45;;;;;;;1.30;1.30;;;20.00;68.20;;;;;;5102810;28;43378;-71
2022/10/10 02:24:13;;;;;;;1.33;1.33;;;20.00;68.80;;;;;;5101972;27;43370;-72
2022/10/10 02:26:43;;;;;;;1.43;1.43;;;20.00;68.50;;;;;;5102842;28;43534;-72
2022/10/10 02:29:12;;;;;;;1.33;1.33;;;20.10;68.20;;;;;;5100752;27;43885;-72
2022/10/10 02:31:43;;;;;;;1.30;1.30;;;20.30;67.70;;;;;;5101853;27;43430;-72
2022/10/10 02:34:12;;;;;;;1.30;1.30;;;20.40;67.10;;;;;;5102115;27;43380;-73
2022/10/10 02:36:40;;;;;;;1.40;1.40;;;20.50;66.90;;;;;;5102626;27;43552;-71
2022/10/10 02:39:08;;;;;;;1.20;1.20;;;20.50;66.80;;;;;;5102097;27;43882;-72
2022/10/10 02:41:36;;;;;;;1.20;1.20;;;20.40;66.80;;;;;;5101208;27;44031;-72
2022/10/10 02:44:04;;;;;;;1.30;1.30;;;20.30;66.90;;;;;;5101131;28;43465;-72
2022/10/10 02:46:32;;;;;;;1.30;1.30;;;20.20;67.70;;;;;;5100592;28;43427;-73
2022/10/10 02:49:02;;;;;;;1.40;1.40;;;20.20;67.70;;;;;;5102069;27;43857;-72
2022/10/10 02:51:30;;;;;;;1.30;1.30;;;20.20;67.60;;;;;;5101004;28;43905;-73
2022/10/10 02:53:58;;;;;;;1.20;1.20;;;20.10;67.50;;;;;;5101642;27;43394;-72
2022/10/10 02:56:26;;;;;;;1.30;1.30;;;20.10;67.70;;;;;;5101634;27;43390;-72
2022/10/10 02:58:54;;;;;;;1.40;1.40;;;20.00;68.30;;;;;;5101363;27;43754;-71
2022/10/10 03:01:22;;;;;;;1.40;1.40;;;20.00;68.30;;;;;;5101951;27;43480;-73
2022/10/10 03:03:50;;;;;;;1.43;1.43;;;20.00;68.00;;;;;;5101664;28;43410;-73
2022/10/10 03:06:19;;;;;;;1.23;1.23;;;20.00;68.00;;;;;;5102433;28;43483;-73
2022/10/10 03:08:47;;;;;;;1.40;1.40;;;20.00;68.10;;;;;;5100701;27;43580;-72
2022/10/10 03:11:15;;;;;;;1.40;1.40;;;19.90;68.70;;;;;;5100819;27;43463;-73
2022/10/10 03:13:43;;;;;;;1.23;1.23;;;20.00;68.70;;;;;;5101502;27;43406;-72
2022/10/10 03:16:11;;;;;;;1.20;1.20;;;20.10;68.40;;;;;;5102040;27;43956;-73
2022/10/10 03:18:39;;;;;;;1.43;1.43;;;20.20;67.80;;;;;;5101150;27;44308;-73
2022/10/10 03:21:07;;;;;;;1.20;1.20;;;20.30;67.30;;;;;;5099567;28;44567;-73
2022/10/10 03:23:36;;;;;;;1.33;1.33;;;20.30;67.20;;;;;;5098838;28;43416;-73
2022/10/10 03:26:05;;;;;;;1.40;1.30;;;20.30;67.10;;;;;;5100189;27;43481;-72
2022/10/10 03:28:32;;;;;;;1.20;1.20;;;20.30;67.20;;;;;;5098350;28;46025;-73
2022/10/10 03:31:00;;;;;;;1.40;1.40;;;20.20;67.40;;;;;;5099116;27;43709;-73
2022/10/10 03:33:28;;;;;;;1.43;1.43;;;20.10;67.70;;;;;;5099886;27;44014;-72
2022/10/10 03:35:56;;;;;;;1.50;1.50;;;20.10;68.20;;;;;;5099732;27;43518;-71
2022/10/10 03:38:24;;;;;;;1.30;1.30;;;20.10;68.00;;;;;;5099993;27;43858;-72
2022/10/10 03:40:54;;;;;;;1.30;1.30;;;20.00;67.90;;;;;;5099825;27;43401;-71
2022/10/10 03:43:21;;;;;;;1.37;1.37;;;20.00;68.00;;;;;;5099209;28;43374;-73
2022/10/10 03:45:49;;;;;;;2.70;1.70;;;20.00;68.20;;;;;;5102814;27;43383;-73
2022/10/10 03:48:17;;;;;;;5.57;2.87;;;19.90;68.70;;;;;;5104901;27;43930;-73
2022/10/10 03:50:45;;;;;;;7.53;3.10;;;20.00;68.50;;;;;;5104933;27;43429;-73
2022/10/10 03:53:13;;;;;;;6.00;2.87;;;20.10;68.20;;;;;;5104023;28;43421;-72
2022/10/10 03:55:41;;;;;;;9.37;3.17;;;20.10;67.90;;;;;;5103731;28;43386;-72
2022/10/10 03:58:10;;;;;;;8.50;3.33;;;20.10;67.80;;;;;;5104838;27;43614;-73
2022/10/10 04:00:38;;;;;;;7.17;3.50;;;20.10;68.30;;;;;;5102123;28;44290;-73
2022/10/10 04:03:07;;;;;;;8.37;3.90;;;20.10;68.20;;;;;;5105335;28;43940;-73
2022/10/10 04:05:35;;;;;;;5.57;3.57;;;20.10;68.00;;;;;;5106062;28;43569;-72
2022/10/10 04:08:03;;;;;;;8.57;3.93;;;20.00;67.90;;;;;;5104036;28;46046;-71
2022/10/10 04:10:30;;;;;;;5.63;3.63;;;20.00;68.00;;;;;;5103865;28;44942;-72
2022/10/10 04:12:58;;;;;;;4.97;3.87;;;20.00;68.40;;;;;;5105922;27;43410;-72
2022/10/10 04:15:27;;;;;;;7.57;4.00;;;19.90;68.70;;;;;;5106268;27;43339;-73
2022/10/10 04:17:55;;;;;;;6.17;3.80;;;19.90;68.30;;;;;;5104275;28;45302;-73
2022/10/10 04:20:23;;;;;;;5.70;3.67;;;19.90;68.20;;;;;;5105197;27;43921;-71
2022/10/10 04:22:51;;;;;;;6.17;3.70;;;19.90;68.20;;;;;;5104065;27;43637;-72
2022/10/10 04:25:20;;;;;;;7.53;4.40;;;19.90;68.30;;;;;;5105826;27;43379;-72
2022/10/10 04:27:47;;;;;;;7.10;3.93;;;19.80;69.10;;;;;;5105303;27;43796;-72
2022/10/10 04:30:15;;;;;;;6.20;3.90;;;19.90;68.80;;;;;;5104174;28;43912;-72
2022/10/10 04:32:45;;;;;;;8.10;4.27;;;20.00;68.30;;;;;;5103495;27;43413;-71
2022/10/10 04:35:12;;;;;;;8.03;4.43;;;20.10;67.90;;;;;;5104566;27;43520;-73
2022/10/10 04:37:40;;;;;;;6.93;4.20;;;20.10;67.80;;;;;;5102515;27;43618;-72
2022/10/10 04:40:09;;;;;;;8.03;4.70;;;20.10;67.60;;;;;;5099813;28;43445;-72
2022/10/10 04:42:37;;;;;;;8.00;3.93;;;20.10;68.20;;;;;;5103208;28;43500;-72
2022/10/10 04:45:06;;;;;;;7.63;4.30;;;20.10;68.10;;;;;;5101829;28;43860;-72
2022/10/10 04:47:34;;;;;;;7.23;4.37;;;20.10;67.90;;;;;;5103244;27;43831;-72
2022/10/10 04:50:04;;;;;;;4.90;3.67;;;20.10;67.80;;;;;;5101613;28;44583;-72
2022/10/10 04:52:36;;;;;;;6.07;3.80;;;20.00;67.90;;;;;;5102784;27;43394;-73
2022/10/10 04:55:04;;;;;;;5.73;4.00;;;20.00;68.50;;;;;;5104382;27;43403;-72
2022/10/10 04:57:32;;;;;;;8.23;4.17;;;20.00;68.60;;;;;;5103653;27;43610;-72
2022/10/10 05:00:00;;;;;;;4.60;3.37;;;20.00;68.30;;;;;;5103189;27;43377;-72
2022/10/10 05:02:28;;;;;;;4.87;3.53;;;19.90;68.10;;;;;;5102813;28;43521;-72
2022/10/10 05:04:56;;;;;;;6.27;3.83;;;19.90;68.20;;;;;;5103553;27;43414;-73
2022/10/10 05:07:25;;;;;;;5.63;3.40;;;19.90;68.60;;;;;;5101433;28;43668;-73
2022/10/10 05:09:53;;;;;;;5.13;3.63;;;19.90;68.90;;;;;;5102448;27;43444;-72
2022/10/10 05:12:21;;;;;;;6.73;3.80;;;20.00;68.50;;;;;;5102201;27;43429;-72
2022/10/10 05:14:49;;;;;;;4.53;3.70;;;20.10;68.00;;;;;;5104161;27;43319;-72
2022/10/10 05:17:16;;;;;;;4.03;3.47;;;20.20;67.90;;;;;;5103351;28;44038;-73
2022/10/10 05:19:44;;;;;;;6.67;3.93;;;20.20;67.70;;;;;;5104502;27;43949;-74
2022/10/10 05:22:12;;;;;;;4.37;3.70;;;20.10;67.90;;;;;;5105480;27;43385;-72
2022/10/10 05:24:42;;;;;;;3.80;3.37;;;20.10;68.10;;;;;;5104395;27;43401;-72
2022/10/10 05:27:09;;;;;;;5.03;3.90;;;20.10;68.10;;;;;;5104232;28;43610;-73
2022/10/10 05:29:37;;;;;;;3.63;3.30;;;20.10;67.90;;;;;;5103870;28;44637;-72
2022/10/10 05:32:05;;;;;;;3.63;3.27;;;20.00;67.90;;;;;;5105311;27;43414;-73
2022/10/10 05:34:37;;;;;;;4.60;3.40;;;20.00;68.00;;;;;;5106055;27;43428;-73
2022/10/10 05:37:05;;;;;;;4.07;3.20;;;20.00;68.80;;;;;;5105706;27;43606;-73
2022/10/10 05:39:33;;;;;;;3.53;3.23;;;20.00;68.50;;;;;;5103161;28;44621;-72
2022/10/10 05:42:02;;;;;;;4.37;3.30;;;19.90;68.10;;;;;;5104234;27;43455;-73
2022/10/10 05:44:30;;;;;;;3.47;3.17;;;19.90;68.20;;;;;;5136076;27;43461;-72
2022/10/10 05:46:58;;;;;;;5.80;3.80;;;19.90;68.30;;;;;;5104888;27;43615;-73
2022/10/10 05:49:25;;;;;;;5.87;3.77;;;19.90;69.10;;;;;;5104389;27;43518;-73
2022/10/10 05:51:53;;;;;;;3.77;3.47;;;19.90;68.80;;;;;;5104321;27;43385;-73
2022/10/10 05:54:21;;;;;;;3.60;3.30;;;20.00;68.40;;;;;;5103662;28;43398;-72
2022/10/10 05:56:49;;;;;;;4.33;3.23;;;20.10;68.10;;;;;;5105155;27;43843;-72
2022/10/10 05:59:18;;;;;;;3.97;3.03;;;20.10;67.90;;;;;;5104777;27;43468;-72
2022/10/10 06:01:46;;;;;;;3.93;3.27;;;20.10;67.80;;;;;;5103222;28;43377;-72
2022/10/10 06:04:14;;;;;;;3.43;3.13;;;20.10;68.30;;;;;;5103431;28;43413;-73
2022/10/10 06:06:42;;;;;;;3.63;3.30;;;20.10;68.20;;;;;;5103648;28;45632;-72
2022/10/10 06:09:10;;;;;;;3.43;3.13;;;20.10;68.00;;;;;;5103911;27;43426;-72
2022/10/10 06:11:38;;;;;;;3.23;3.03;;;20.00;68.00;;;;;;5103474;27;43743;-73
2022/10/10 06:14:05;;;;;;;3.10;2.90;;;20.00;68.10;;;;;;5104511;27;43595;-72
2022/10/10 06:16:35;;;;;;;3.23;2.90;;;20.00;68.70;;;;;;5102695;28;45432;-73
2022/10/10 06:19:03;;;;;;;2.97;2.80;;;19.90;68.50;;;;;;5103095;27;43374;-72
2022/10/10 06:21:31;;;;;;;2.97;2.77;;;19.90;68.30;;;;;;5103061;28;43452;-72
2022/10/10 06:23:59;;;;;;;3.40;3.20;;;19.90;68.20;;;;;;5103534;28;43518;-72
2022/10/10 06:26:27;;;;;;;3.07;2.83;;;19.90;68.30;;;;;;5103763;28;43872;-71
2022/10/10 06:28:55;;;;;;;2.70;2.57;;;19.90;69.00;;;;;;5101987;28;44830;-72
2022/10/10 06:31:23;;;;;;;2.90;2.70;;;19.90;69.00;;;;;;5103733;27;43429;-72
2022/10/10 06:33:52;;;;;;;2.70;2.50;;;20.00;68.50;;;;;;5104755;27;43446;-73
2022/10/10 06:36:20;;;;;;;3.20;2.90;;;20.10;68.30;;;;;;5103411;27;43677;-73
2022/10/10 06:38:48;;;;;;;3.00;2.80;;;20.10;68.00;;;;;;5103194;27;44040;-73
2022/10/10 06:41:15;;;;;;;2.90;2.80;;;20.10;68.20;;;;;;5102849;28;44049;-72
2022/10/10 06:43:43;;;;;;;2.77;2.57;;;20.00;68.30;;;;;;5104943;27;43444;-72
2022/10/10 06:46:12;;;;;;;2.73;2.57;;;20.10;68.20;;;;;;5104887;28;43949;-73
2022/10/10 06:48:40;;;;;;;3.20;2.97;;;20.00;68.00;;;;;;5104274;27;43422;-72
2022/10/10 06:51:11;;;;;;;3.03;2.77;;;20.00;68.00;;;;;;5103455;27;43477;-73
2022/10/10 06:53:38;;;;;;;4.37;3.00;;;20.00;68.90;;;;;;5104864;27;43446;-73
2022/10/10 06:56:06;;;;;;;2.90;2.80;;;19.90;68.70;;;;;;5104468;27;43593;-72
2022/10/10 06:58:34;;;;;;;2.90;2.70;;;20.00;68.50;;;;;;5102761;27;44072;-73
2022/10/10 07:01:03;;;;;;;2.63;2.53;;;20.00;68.30;;;;;;5100587;27;43411;-72
2022/10/10 07:03:31;;;;;;;3.17;2.93;;;19.90;68.20;;;;;;5101266;27;43423;-71
2022/10/10 07:06:00;;;;;;;2.90;2.63;;;19.90;68.30;;;;;;5101063;27;43547;-72
2022/10/10 07:08:31;;;;;;;2.83;2.70;;;19.90;69.00;;;;;;5100934;27;43401;-73
2022/10/10 07:10:59;;;;;;;2.70;2.60;;;19.90;68.90;;;;;;5098723;27;44095;-72
2022/10/10 07:13:27;;;;;;;3.37;2.90;;;20.00;68.30;;;;;;5100398;27;43537;-72
2022/10/10 07:15:55;;;;;;;2.80;2.60;;;20.20;68.10;;;;;;5100591;28;43892;-73
2022/10/10 07:18:23;;;;;;;2.63;2.43;;;20.20;67.60;;;;;;5100987;28;43788;-72
2022/10/10 07:20:51;;;;;;;2.60;2.40;;;20.30;67.50;;;;;;5101332;27;43465;-73
2022/10/10 07:23:19;;;;;;;2.37;2.27;;;20.20;67.40;;;;;;5107463;27;43621;-72
2022/10/10 07:25:48;;;;;;;2.57;2.47;;;20.20;67.50;;;;;;5106512;27;43598;-73
2022/10/10 07:28:16;;;;;;;2.30;2.20;;;20.10;67.60;;;;;;5106973;27;44017;-72
2022/10/10 07:30:45;;;;;;;3.00;2.70;;;20.10;68.40;;;;;;5107350;27;43385;-72
2022/10/10 07:33:13;;;;;;;2.53;2.43;;;20.00;68.40;;;;;;5102962;28;43342;-72
2022/10/10 07:35:41;;;;;;;2.37;2.27;;;20.00;68.30;;;;;;5101754;28;43846;-73
2022/10/10 07:38:10;;;;;;;2.10;2.10;;;20.00;68.30;;;;;;5105171;28;44691;-73
2022/10/10 07:40:39;;;;;;;2.70;2.53;;;19.90;68.20;;;;;;5100503;28;43400;-72
2022/10/10 07:43:08;;;;;;;2.67;2.57;;;19.90;68.60;;;;;;5105813;28;43525;-72
2022/10/10 07:45:36;;;;;;;2.53;2.40;;;19.90;69.00;;;;;;5106307;27;43555;-73
2022/10/10 07:48:04;;;;;;;2.40;2.30;;;19.90;68.70;;;;;;5106978;27;43801;-73
2022/10/10 07:50:33;;;;;;;2.50;2.40;;;19.90;68.50;;;;;;5106309;27;43433;-72
2022/10/10 07:53:01;;;;;;;2.43;2.33;;;19.90;68.50;;;;;;5104310;28;43433;-72
2022/10/10 07:55:28;;;;;;;2.43;2.33;;;19.80;68.60;;;;;;5107128;28;43997;-72
2022/10/10 07:57:58;;;;;;;2.30;2.20;;;19.80;69.20;;;;;;5105235;28;44565;-72
2022/10/10 08:00:28;;;;;;;2.47;2.37;;;19.90;69.00;;;;;;5106796;27;43313;-73
2022/10/10 08:02:57;;;;;;;2.43;2.33;;;20.00;68.50;;;;;;5104676;28;43426;-73
2022/10/10 08:05:25;;;;;;;2.70;2.60;;;20.10;68.10;;;;;;5104887;27;43596;-72
2022/10/10 08:07:53;;;;;;;2.43;2.33;;;20.20;67.70;;;;;;5105369;28;43416;-72
2022/10/10 08:10:21;;;;;;;2.40;2.30;;;20.20;67.80;;;;;;5105856;28;43513;-72
2022/10/10 08:12:49;;;;;;;2.23;2.13;;;20.20;67.60;;;;;;5107268;27;43905;-72
2022/10/10 08:15:17;;;;;;;2.40;2.30;;;20.10;67.60;;;;;;5106623;27;43779;-72
2022/10/10 08:17:46;;;;;;;2.53;2.43;;;20.10;67.90;;;;;;5105850;28;43420;-73
2022/10/10 08:20:14;;;;;;;2.53;2.43;;;20.00;68.50;;;;;;5105212;27;43425;-73
2022/10/10 08:22:42;;;;;;;2.40;2.30;;;20.00;68.40;;;;;;5106584;27;43502;-73
2022/10/10 08:25:10;;;;;;;1.87;1.87;;;20.00;68.30;;;;;;5105974;27;43853;-72
2022/10/10 08:27:38;;;;;;;2.83;2.63;;;19.90;68.20;;;;;;5104040;28;44292;-73
2022/10/10 08:30:07;;;;;;;2.40;2.30;;;19.90;68.40;;;;;;5105073;27;43783;-72
2022/10/10 08:32:34;;;;;;;2.30;2.20;;;19.90;69.10;;;;;;5104146;27;43437;-73
2022/10/10 08:35:04;;;;;;;2.10;2.10;;;19.90;68.90;;;;;;5105674;27;43593;-72
2022/10/10 08:37:32;;;;;;;2.07;1.97;;;19.90;68.70;;;;;;5104266;28;43434;-73
2022/10/10 08:40:05;;;;;;;2.30;2.20;;;19.90;69.40;;;;;;5104574;27;43556;-72
2022/10/10 08:42:34;;;;;;;2.20;2.00;;;19.80;68.70;;;;;;5105204;28;43533;-73
2022/10/10 08:45:03;;;;;;;2.23;2.13;;;19.80;69.30;;;;;;5103672;28;45955;-72
2022/10/10 08:47:36;;;;;;;2.20;2.10;;;19.80;69.10;;;;;;5103248;28;43879;-72
2022/10/10 08:50:11;;;;;;;2.20;2.10;;;19.90;68.70;;;;;;5104444;27;43429;-72
2022/10/10 08:52:41;;;;;;;2.07;1.97;;;20.00;68.50;;;;;;5104633;27;43413;-72
2022/10/10 08:55:14;;;;;;;2.27;2.17;;;20.00;68.30;;;;;;5103619;28;45543;-72
2022/10/10 08:57:48;;;;;;;2.00;1.90;;;20.00;68.30;;;;;;5103982;28;43467;-72
2022/10/10 09:00:17;;;;;;;2.47;2.37;;;20.00;68.80;;;;;;5104864;27;43367;-72
2022/10/10 09:02:48;;;;;;;2.03;1.93;;;20.00;68.50;;;;;;5104880;27;43492;-73
2022/10/10 09:05:29;;;;;;;1.73;1.73;;;20.00;68.40;;;;;;5103302;28;44044;-73
2022/10/10 09:08:11;;;;;;;2.00;1.90;;;19.90;68.40;;;;;;5100452;28;43436;-72
2022/10/10 09:10:43;;;;;;;2.20;2.10;;;19.90;68.70;;;;;;5104953;27;43983;-73
2022/10/10 09:13:16;;;;;;;1.80;1.80;;;19.90;69.20;;;;;;5106273;27;43383;-72
2022/10/10 09:15:49;;;;;;;1.90;1.90;;;19.90;68.80;;;;;;5104777;28;43887;-72
2022/10/10 09:18:21;;;;;;;1.70;1.70;;;19.90;68.80;;;;;;5104410;28;44583;-74
2022/10/10 09:20:54;;;;;;;1.90;1.90;;;19.90;68.80;;;;;;5105687;27;43433;-72
2022/10/10 09:23:25;;;;;;;2.00;1.90;;;19.80;68.80;;;;;;5105212;28;43552;-73
2022/10/10 09:25:54;;;;;;;1.93;1.90;;;19.80;69.40;;;;;;5105529;27;43781;-73
2022/10/10 09:28:31;;;;;;;1.90;1.90;;;19.90;69.30;;;;;;5105370;27;43401;-73
2022/10/10 09:30:59;;;;;;;2.10;2.10;;;20.00;68.80;;;;;;5105589;28;43849;-72
2022/10/10 09:33:29;;;;;;;2.30;2.20;;;20.10;68.30;;;;;;5102481;28;43476;-73
2022/10/10 09:35:59;;;;;;;1.80;1.80;;;20.20;68.10;;;;;;5104871;28;43878;-72
2022/10/10 09:38:32;;;;;;;2.17;2.07;;;20.20;68.00;;;;;;5103151;28;45118;-73
2022/10/10 09:41:01;;;;;;;2.03;2.00;;;20.20;68.00;;;;;;5104027;27;43437;-72
2022/10/10 09:43:31;;;;;;;1.80;1.80;;;20.10;68.10;;;;;;5104927;27;43422;-72
2022/10/10 09:45:58;;;;;;;1.53;1.53;;;20.00;68.30;;;;;;5104919;28;44017;-72
2022/10/10 09:48:28;;;;;;;2.13;2.13;;;20.00;68.90;;;;;;5105287;27;43382;-72
2022/10/10 09:50:58;;;;;;;1.80;1.80;;;20.00;68.70;;;;;;5105054;28;43414;-72
2022/10/10 09:53:27;;;;;;;2.20;1.80;;;20.00;68.70;;;;;;5103642;28;43352;-72
2022/10/10 09:55:54;;;;;;;2.30;2.20;;;19.90;68.70;;;;;;5104394;28;43843;-73
2022/10/10 09:58:28;;;;;;;2.07;1.97;;;19.90;68.80;;;;;;5104530;27;43405;-72
2022/10/10 10:00:56;;;;;;;2.07;2.03;;;19.90;69.30;;;;;;5104278;27;43407;-72
2022/10/10 10:03:24;;;;;;;1.80;1.80;;;19.90;69.10;;;;;;5105608;27;43369;-72
2022/10/10 10:05:56;;;;;;;1.57;1.57;;;19.90;69.10;;;;;;5102431;28;45260;-73
2022/10/10 10:08:27;;;;;;;2.13;2.03;;;19.80;68.90;;;;;;5104014;27;43349;-72
2022/10/10 10:10:58;;;;;;;1.73;1.73;;;19.80;69.00;;;;;;5104406;27;43370;-73
2022/10/10 10:13:28;;;;;;;1.70;1.70;;;19.80;69.30;;;;;;5105282;27;43447;-73
2022/10/10 10:16:07;;;;;;;2.00;1.90;;;19.80;69.50;;;;;;5103631;28;45491;-72
2022/10/10 10:18:39;;;;;;;1.70;1.70;;;19.90;69.10;;;;;;5104825;27;43423;-73
2022/10/10 10:21:21;;;;;;;1.70;1.70;;;20.00;68.70;;;;;;5104769;27;43318;-73
2022/10/10 10:23:55;;;;;;;1.70;1.70;;;20.20;68.30;;;;;;5102964;28;43463;-72
2022/10/10 10:26:26;;;;;;;1.70;1.70;;;20.20;68.10;;;;;;5104731;28;43890;-73
2022/10/10 10:28:54;;;;;;;1.67;1.67;;;20.20;68.20;;;;;;5104827;28;43385;-73
2022/10/10 10:31:30;;;;;;;1.50;1.50;;;20.10;68.30;;;;;;5104430;27;43446;-74
2022/10/10 10:34:11;;;;;;;1.83;1.83;;;20.10;68.40;;;;;;5103554;28;43409;-72
2022/10/10 10:36:45;;;;;;;1.57;1.57;;;20.00;68.90;;;;;;5097646;28;45972;-73
2022/10/10 10:39:22;;;;;;;1.60;1.60;;;20.00;68.90;;;;;;5104685;27;44401;-73
2022/10/10 10:41:53;;;;;;;1.70;1.70;;;20.00;68.90;;;;;;5103748;28;43408;-72
2022/10/10 10:44:29;;;;;;;1.70;1.70;;;19.90;68.90;;;;;;5103075;28;43510;-73
2022/10/10 10:47:03;;;;;;;1.60;1.60;;;19.90;69.00;;;;;;5101464;28;43893;-72
2022/10/10 10:49:35;;;;;;;1.50;1.50;;;19.90;69.40;;;;;;5101467;27;43389;-72
2022/10/10 10:52:10;;;;;;;1.90;1.80;;;19.90;69.20;;;;;;5103644;27;43430;-73
2022/10/10 10:54:49;;;;;;;2.00;2.00;;;19.90;69.20;;;;;;5104656;27;43468;-72
2022/10/10 10:57:22;;;;;;;1.70;1.70;;;19.90;69.20;;;;;;5103360;28;43607;-73
2022/10/10 11:00:11;;;;;;;1.67;1.67;;;19.80;69.20;;;;;;5103766;28;43379;-73
2022/10/10 11:03:10;;;;;;;1.50;1.50;;;19.80;69.50;;;;;;5098684;28;43870;-72
2022/10/10 11:06:00;;;;;;;1.60;1.60;;;19.90;69.40;;;;;;5102984;27;43541;-73
2022/10/10 11:08:36;;;;;;;1.67;1.67;;;20.00;68.90;;;;;;5103172;28;43675;-72
2022/10/10 11:11:18;;;;;;;1.80;1.80;;;20.20;68.50;;;;;;5102028;28;43370;-73
2022/10/10 11:13:50;;;;;;;1.97;1.97;;;20.20;68.10;;;;;;5102723;28;43425;-73
2022/10/10 11:16:21;;;;;;;1.80;1.70;;;20.20;68.10;;;;;;5103607;27;43423;-73
2022/10/10 11:19:16;;;;;;;1.60;1.60;;;20.20;68.40;;;;;;5104428;27;43563;-72
2022/10/10 11:21:45;;;;;;;1.50;1.50;;;20.10;68.40;;;;;;5104593;28;43353;-72
2022/10/10 11:24:15;;;;;;;1.70;1.70;;;20.00;68.60;;;;;;5105429;27;43497;-73
2022/10/10 11:26:46;;;;;;;1.80;1.80;;;20.00;69.60;;;;;;5106051;27;43371;-72
2022/10/10 11:29:15;;;;;;;1.77;1.77;;;20.00;68.90;;;;;;5105566;27;43835;-73
2022/10/10 11:31:45;;;;;;;1.70;1.70;;;20.00;69.00;;;;;;5104765;28;43330;-72
2022/10/10 11:34:15;;;;;;;1.60;1.60;;;20.00;69.10;;;;;;5105598;28;43370;-72
2022/10/10 11:36:44;;;;;;;1.60;1.60;;;19.90;69.20;;;;;;5106037;27;43376;-72
2022/10/10 11:39:13;;;;;;;1.80;1.80;;;19.90;69.30;;;;;;5103044;28;43917;-72
2022/10/10 11:41:46;;;;;;;1.43;1.43;;;19.90;69.20;;;;;;5104658;28;44566;-72
2022/10/10 11:44:17;;;;;;;1.40;1.40;;;19.90;69.20;;;;;;5106386;27;43464;-72
2022/10/10 11:46:46;;;;;;;1.50;1.50;;;19.90;69.30;;;;;;5105273;28;43669;-73
2022/10/10 11:49:17;;;;;;;1.60;1.60;;;19.80;69.30;;;;;;5105479;28;43908;-73
2022/10/10 11:51:57;;;;;;;1.50;1.43;;;19.90;69.60;;;;;;5105205;27;43486;-73
2022/10/10 11:54:47;;;;;;;1.67;1.67;;;19.90;69.30;;;;;;5104418;28;43434;-74
2022/10/10 11:57:18;;;;;;;1.50;1.50;;;20.10;69.50;;;;;;5106400;27;43399;-73
2022/10/10 11:59:47;;;;;;;1.50;1.50;;;20.20;68.50;;;;;;5105613;28;43754;-73
2022/10/10 12:02:18;;;;;;;1.47;1.47;;;20.20;68.20;;;;;;5104956;27;43357;-74
2022/10/10 12:04:46;;;;;;;1.33;1.33;;;20.20;68.30;;;;;;5106170;27;43449;-72
2022/10/10 12:07:15;;;;;;;1.40;1.40;;;20.20;68.40;;;;;;5107292;27;43493;-72
2022/10/10 12:09:44;;;;;;;1.40;1.40;;;20.10;68.40;;;;;;5110402;28;43901;-73
2022/10/10 12:12:13;;;;;;;1.77;1.70;;;20.10;68.70;;;;;;5109422;28;43374;-72
2022/10/10 12:14:44;;;;;;;1.50;1.50;;;20.00;68.90;;;;;;5110018;27;43639;-72
2022/10/10 12:17:18;;;;;;;1.50;1.50;;;20.00;68.90;;;;;;5110285;27;43418;-73
2022/10/10 12:19:47;;;;;;;1.40;1.40;;;20.00;69.00;;;;;;5106473;28;43877;-74
2022/10/10 12:22:22;;;;;;;1.40;1.40;;;20.00;69.10;;;;;;5109280;28;43381;-72
2022/10/10 12:25:08;;;;;;;1.60;1.50;;;19.90;69.10;;;;;;5108326;28;43422;-72
2022/10/10 12:27:43;;;;;;;1.37;1.37;;;19.90;69.20;;;;;;5105644;28;43390;-73
2022/10/10 12:30:24;;;;;;;1.50;1.50;;;19.90;69.20;;;;;;5109749;27;43819;-72
2022/10/10 12:32:56;;;;;;;1.70;1.70;;;19.90;69.20;;;;;;5109630;28;43424;-73
2022/10/10 12:35:35;;;;;;;1.50;1.50;;;19.90;69.20;;;;;;5107984;27;43566;-73
2022/10/10 12:38:09;;;;;;;1.43;1.43;;;19.90;69.20;;;;;;5109749;28;43440;-72
2022/10/10 12:41:04;;;;;;;1.40;1.40;;;19.90;69.50;;;;;;5102617;28;45752;-72
2022/10/10 12:43:50;;;;;;;1.63;1.63;;;20.00;69.40;;;;;;5109432;27;43449;-73
2022/10/10 12:46:24;;;;;;;1.40;1.40;;;20.00;68.80;;;;;;5109434;27;43405;-73
2022/10/10 12:49:13;;;;;;;1.43;1.43;;;20.20;68.40;;;;;;5109548;27;43552;-73
2022/10/10 12:51:41;;;;;;;1.70;1.60;;;20.20;68.10;;;;;;5108421;28;43835;-73
2022/10/10 12:54:09;;;;;;;1.50;1.50;;;20.20;68.20;;;;;;5109188;27;43346;-73
2022/10/10 12:56:39;;;;;;;1.53;1.53;;;20.20;68.30;;;;;;5108599;27;43645;-72
2022/10/10 12:59:13;;;;;;;1.70;1.70;;;20.20;68.50;;;;;;5106606;28;43375;-73
2022/10/10 13:01:45;;;;;;;1.40;1.40;;;20.10;68.60;;;;;;5109820;27;43602;-74
2022/10/10 13:04:16;;;;;;;1.53;1.53;;;20.10;68.80;;;;;;5109520;27;43400;-72